Time;durP1;ratioP1;P1;durP2;ratioP2;P2;SDS_P1;SDS_P2;PMS_P1;PMS_P2;Temp;Humidity;BMP_temperature;BMP_pressure;BME280_temperature;BME280_humidity;BME280_pressure;Samples;Min_cycle;Max_cycle;Signal;HPM_P1;HPM_P2
2022/09/14 00:00:41;;;;;;;5.40;1.55;;;;;;;-145.69;100.00;70204.69;5072386;28;20199;-77
2022/09/14 00:03:07;;;;;;;4.85;1.48;;;;;;;-145.69;100.00;70220.59;5072332;28;20673;-77
2022/09/14 00:05:34;;;;;;;4.88;1.45;;;;;;;-145.69;100.00;70216.63;5072480;28;20594;-76
2022/09/14 00:08:06;;;;;;;3.38;1.42;;;;;;;-145.69;100.00;70232.53;5072757;28;20207;-77
2022/09/14 00:10:37;;;;;;;2.90;1.25;;;;;;;-145.69;100.00;70244.47;5072589;28;20276;-76
2022/09/14 00:13:04;;;;;;;4.45;1.40;;;;;;;-145.69;100.00;70238.50;5072611;28;20202;-77
2022/09/14 00:15:30;;;;;;;3.90;1.60;;;;;;;-145.69;100.00;70236.50;5072377;28;20208;-76
2022/09/14 00:17:57;;;;;;;1.88;1.20;;;;;;;-145.69;100.00;70212.63;5072386;28;20194;-76
2022/09/14 00:20:26;;;;;;;2.72;1.30;;;;;;;-145.69;100.00;70204.69;5072228;28;20596;-76
2022/09/14 00:22:52;;;;;;;6.15;1.38;;;;;;;-145.69;100.00;70184.78;5072646;28;20238;-76
2022/09/14 00:25:19;;;;;;;5.40;1.42;;;;;;;-145.69;100.00;70176.81;5071850;28;20771;-80
2022/09/14 00:27:50;;;;;;;3.05;1.33;;;;;;;-145.69;100.00;70174.84;5072146;28;20206;-76
2022/09/14 00:30:16;;;;;;;3.67;1.50;;;;;;;-145.69;100.00;70162.91;5072265;28;20194;-77
2022/09/14 00:32:46;;;;;;;5.47;1.77;;;;;;;-145.69;100.00;70164.88;5072480;28;20206;-77
2022/09/14 00:35:21;;;;;;;4.13;1.48;;;;;;;-145.69;100.00;70154.94;5073648;28;20206;-77
2022/09/14 00:37:49;;;;;;;4.57;1.17;;;;;;;-145.69;100.00;70152.97;5076187;28;20209;-78
2022/09/14 00:40:17;;;;;;;2.03;1.50;;;;;;;-145.69;100.00;70164.88;5075945;28;20722;-77
2022/09/14 00:42:51;;;;;;;2.35;1.27;;;;;;;-145.69;100.00;70158.94;5075675;28;20237;-77
2022/09/14 00:45:19;;;;;;;2.05;1.35;;;;;;;-145.69;100.00;70172.84;5075279;28;20444;-77
2022/09/14 00:47:52;;;;;;;2.58;1.55;;;;;;;-145.69;100.00;70182.78;5075828;28;20195;-79
2022/09/14 00:50:21;;;;;;;4.75;1.50;;;;;;;-145.69;100.00;70180.81;5075677;28;20238;-78
2022/09/14 00:52:50;;;;;;;2.92;1.40;;;;;;;-145.69;100.00;70178.81;5075875;28;20289;-78
2022/09/14 00:55:20;;;;;;;5.55;1.40;;;;;;;-145.69;100.00;70168.88;5075645;28;20199;-78
2022/09/14 00:57:52;;;;;;;3.35;1.50;;;;;;;-145.69;100.00;70160.91;5075651;28;20195;-79
2022/09/14 01:00:23;;;;;;;5.78;1.40;;;;;;;-145.69;100.00;70137.03;5075416;28;20671;-77
2022/09/14 01:02:49;;;;;;;4.20;1.25;;;;;;;-145.69;100.00;70093.28;5075461;28;20253;-78
2022/09/14 01:05:17;;;;;;;6.10;2.20;;;;;;;-145.69;100.00;70105.22;5075383;28;20293;-77
2022/09/14 01:08:00;;;;;;;4.95;1.60;;;;;;;-145.69;100.00;70085.31;5074918;28;20209;-76
2022/09/14 01:10:37;;;;;;;3.75;1.65;;;;;;;-145.69;100.00;70077.38;5057674;28;20195;-76
2022/09/14 01:13:17;;;;;;;3.78;1.50;;;;;;;-145.69;100.00;70085.31;5055508;28;20207;-78
2022/09/14 01:15:55;;;;;;;4.53;1.40;;;;;;;-145.69;100.00;70103.22;5055545;28;20199;-78
2022/09/14 01:18:26;;;;;;;2.67;1.40;;;;;;;-145.69;100.00;70107.19;5055432;28;20221;-77
2022/09/14 01:20:58;;;;;;;3.55;1.50;;;;;;;-145.69;100.00;70091.28;5054273;28;20230;-78
2022/09/14 01:23:36;;;;;;;2.58;1.35;;;;;;;-145.69;100.00;70101.25;5055121;28;20213;-78
2022/09/14 01:26:40;;;;;;;5.20;1.67;;;;;;;-145.69;100.00;70107.19;5055182;28;20199;-77
2022/09/14 01:29:14;;;;;;;2.40;1.48;;;;;;;-145.69;100.00;70093.28;5074331;28;20653;-77
2022/09/14 01:31:49;;;;;;;5.38;1.75;;;;;;;-145.69;100.00;70095.28;5074794;28;20202;-77
2022/09/14 01:34:22;;;;;;;4.00;2.15;;;;;;;-145.69;100.00;70089.31;5075054;28;20205;-77
2022/09/14 01:36:54;;;;;;;3.97;1.50;;;;;;;-145.69;100.00;70099.25;5074939;28;20199;-76
2022/09/14 01:39:22;;;;;;;6.00;1.58;;;;;;;-145.69;100.00;70111.19;5075236;28;20194;-77
2022/09/14 01:41:50;;;;;;;1.92;1.55;;;;;;;-145.69;100.00;70121.13;5074670;28;20227;-76
2022/09/14 01:44:22;;;;;;;4.32;1.40;;;;;;;-145.69;100.00;70129.09;5073894;28;20210;-77
2022/09/14 01:46:53;;;;;;;8.40;1.55;;;;;;;-145.69;100.00;70141.03;5074778;28;20199;-76
2022/09/14 01:49:24;;;;;;;3.08;1.80;;;;;;;-145.69;100.00;70127.09;5074747;28;20202;-77
2022/09/14 01:51:58;;;;;;;7.57;1.85;;;;;;;-145.69;100.00;70041.56;5074630;28;20239;-77
2022/09/14 01:54:38;;;;;;;7.00;1.73;;;;;;;-145.69;100.00;69965.97;5074707;28;20202;-76
2022/09/14 01:57:11;;;;;;;3.63;1.50;;;;;;;-145.69;100.00;69938.13;5074234;28;20186;-78
2022/09/14 01:59:43;;;;;;;3.10;1.42;;;;;;;-145.69;97.44;69858.56;5074592;28;20199;-77
2022/09/14 02:02:13;;;;;;;9.77;1.88;;;;;;;-145.69;93.61;69826.72;5073958;28;20766;-81
2022/09/14 02:04:49;;;;;;;5.10;1.60;;;;;;;-145.69;93.57;69806.84;5074741;28;20203;-77
2022/09/14 02:07:16;;;;;;;10.15;1.50;;;;;;;-145.69;92.79;69804.84;5074596;28;20202;-77
2022/09/14 02:09:43;;;;;;;7.82;1.85;;;;;;;-145.69;92.75;69806.84;5074353;28;20200;-77
2022/09/14 02:12:10;;;;;;;5.20;1.63;;;;;;;-145.69;96.60;69826.72;5074234;28;20229;-77
2022/09/14 02:14:36;;;;;;;5.63;1.80;;;;;;;-145.69;100.00;69882.44;5074114;28;20683;-76
2022/09/14 02:17:07;;;;;;;8.50;2.50;;;;;;;-145.69;100.00;69914.25;5074357;28;20199;-80
2022/09/14 02:19:40;;;;;;;5.03;1.60;;;;;;;-145.69;100.00;69924.19;5073911;28;20207;-78
2022/09/14 02:22:06;;;;;;;7.63;1.60;;;;;;;-145.69;100.00;69942.09;5073929;28;20225;-79
2022/09/14 02:24:33;;;;;;;6.50;1.50;;;;;;;-145.69;100.00;69912.25;5073735;28;20225;-79
2022/09/14 02:27:00;;;;;;;6.80;1.67;;;;;;;-145.69;100.00;69922.22;5073575;28;20206;-78
2022/09/14 02:29:27;;;;;;;5.82;1.80;;;;;;;-145.69;100.00;69922.22;5073778;28;20435;-78
2022/09/14 02:32:09;;;;;;;6.72;1.83;;;;;;;-145.69;100.00;69924.19;5074023;28;20293;-79
2022/09/14 02:34:44;;;;;;;4.13;1.73;;;;;;;-145.69;100.00;69910.28;5073800;28;20202;-77
2022/09/14 02:37:13;;;;;;;6.57;1.95;;;;;;;-145.69;100.00;69902.31;5073781;28;20195;-78
2022/09/14 02:39:47;;;;;;;7.47;1.80;;;;;;;-145.69;100.00;69906.28;5073606;28;20293;-78
2022/09/14 02:42:26;;;;;;;6.63;1.75;;;;;;;-145.69;100.00;69866.50;5073616;28;20230;-79
2022/09/14 02:45:03;;;;;;;5.57;1.80;;;;;;;-145.69;100.00;69876.47;5073630;28;20215;-78
2022/09/14 02:47:41;;;;;;;7.70;1.50;;;;;;;-145.69;100.00;69914.25;5073278;28;20683;-76
2022/09/14 02:50:18;;;;;;;8.55;1.70;;;;;;;-145.69;100.00;69926.19;5073405;28;20230;-77
2022/09/14 02:52:54;;;;;;;13.98;1.85;;;;;;;-145.69;100.00;69930.16;5072806;28;20198;-77
2022/09/14 02:55:29;;;;;;;6.60;1.90;;;;;;;-145.69;100.00;69928.19;5073337;28;20252;-77
2022/09/14 02:58:01;;;;;;;7.95;1.85;;;;;;;-145.69;100.00;69924.19;5073126;28;20222;-77
2022/09/14 03:00:29;;;;;;;5.45;1.58;;;;;;;-145.69;100.00;69920.22;5073709;28;20301;-76
2022/09/14 03:02:57;;;;;;;7.82;1.92;;;;;;;-145.69;100.00;69946.09;5072551;28;20229;-78
2022/09/14 03:05:23;;;;;;;8.25;2.22;;;;;;;-145.69;100.00;69930.16;5073283;28;20206;-79
2022/09/14 03:07:50;;;;;;;7.43;1.85;;;;;;;-145.69;100.00;69930.16;5073007;28;20199;-78
2022/09/14 03:10:16;;;;;;;3.42;1.95;;;;;;;-145.69;100.00;69936.13;5067122;28;20203;-79
2022/09/14 03:12:43;;;;;;;6.30;1.60;;;;;;;-145.69;100.00;69938.13;5052894;28;20200;-79
2022/09/14 03:15:13;;;;;;;9.98;1.63;;;;;;;-145.69;100.00;69922.22;5052999;28;20655;-79
2022/09/14 03:17:39;;;;;;;5.40;1.67;;;;;;;-145.69;100.00;69910.28;5053178;28;20199;-78
2022/09/14 03:20:08;;;;;;;7.28;1.90;;;;;;;-145.69;100.00;69922.22;5057962;28;20190;-78
2022/09/14 03:22:34;;;;;;;8.65;2.13;;;;;;;-145.69;100.00;69918.22;5072808;28;20705;-78
2022/09/14 03:25:01;;;;;;;8.30;1.92;;;;;;;-145.69;100.00;69908.28;5073148;28;20201;-78
2022/09/14 03:27:27;;;;;;;4.15;2.00;;;;;;;-145.69;100.00;69916.25;5072893;28;20518;-77
2022/09/14 03:29:56;;;;;;;4.95;1.70;;;;;;;-145.69;100.00;69912.25;5072557;28;20190;-78
2022/09/14 03:32:23;;;;;;;12.13;2.13;;;;;;;-145.69;100.00;69924.19;5073001;28;20198;-78
2022/09/14 03:34:49;;;;;;;10.40;2.35;;;;;;;-145.69;100.00;69936.13;5072852;28;20543;-77
2022/09/14 03:37:17;;;;;;;4.80;2.03;;;;;;;-145.69;100.00;69963.97;5073009;28;20198;-77
2022/09/14 03:39:45;;;;;;;10.02;2.08;;;;;;;-145.69;100.00;69969.94;5072854;28;20297;-77
2022/09/14 03:42:12;;;;;;;6.30;1.95;;;;;;;-145.69;100.00;69954.03;5073167;28;20233;-77
2022/09/14 03:44:41;;;;;;;9.18;1.80;;;;;;;-145.69;100.00;69940.13;5072580;28;20213;-77
2022/09/14 03:47:08;;;;;;;4.88;2.08;;;;;;;-145.69;100.00;69926.19;5072924;28;20209;-78
2022/09/14 03:49:34;;;;;;;7.65;2.28;;;;;;;-145.69;100.00;69938.13;5072450;28;20438;-77
2022/09/14 03:52:02;;;;;;;6.78;1.80;;;;;;;-145.69;100.00;69942.09;5072367;28;20317;-79
2022/09/14 03:54:30;;;;;;;6.47;1.83;;;;;;;-145.69;100.00;69916.25;5072639;28;20202;-78
2022/09/14 03:56:58;;;;;;;6.55;1.80;;;;;;;-145.69;100.00;69906.28;5072759;28;20209;-77
2022/09/14 03:59:25;;;;;;;10.63;2.00;;;;;;;-145.69;100.00;69906.28;5072491;28;20201;-77
2022/09/14 04:01:54;;;;;;;6.75;1.80;;;;;;;-145.69;100.00;69908.28;5072124;28;20202;-76
2022/09/14 04:04:21;;;;;;;5.63;2.08;;;;;;;-145.69;100.00;69906.28;5072771;28;20206;-77
2022/09/14 04:06:47;;;;;;;6.07;2.20;;;;;;;-145.69;100.00;69914.25;5072660;28;20205;-76
2022/09/14 04:09:14;;;;;;;7.28;2.00;;;;;;;-145.69;100.00;69916.25;5072336;28;20207;-77
2022/09/14 04:11:42;;;;;;;13.23;2.50;;;;;;;-145.69;100.00;69916.25;5075938;28;20198;-79
2022/09/14 04:14:08;;;;;;;8.07;2.35;;;;;;;-145.69;100.00;69914.25;5076497;28;20209;-81
2022/09/14 04:16:35;;;;;;;4.75;1.80;;;;;;;-145.69;100.00;69910.28;5076531;28;20214;-78
2022/09/14 04:19:01;;;;;;;6.45;2.15;;;;;;;-145.69;100.00;69930.16;5076613;28;20203;-79
2022/09/14 04:21:28;;;;;;;10.85;2.47;;;;;;;-145.69;100.00;69940.13;5076348;28;20205;-79
2022/09/14 04:23:58;;;;;;;5.22;2.03;;;;;;;-145.69;100.00;69962.00;5076526;28;20234;-77
2022/09/14 04:26:26;;;;;;;6.95;2.38;;;;;;;-145.69;100.00;70015.69;5076220;28;20666;-78
2022/09/14 04:28:55;;;;;;;4.40;1.90;;;;;;;-145.69;100.00;70049.50;5075950;28;20198;-77
2022/09/14 04:31:22;;;;;;;4.72;2.20;;;;;;;-145.69;100.00;70073.38;5076345;28;20569;-77
2022/09/14 04:33:50;;;;;;;9.85;2.83;;;;;;;-145.69;100.00;70113.16;5076063;28;20203;-75
2022/09/14 04:36:17;;;;;;;7.03;2.80;;;;;;;-145.69;100.00;70119.13;5076040;28;20281;-75
2022/09/14 04:38:46;;;;;;;13.15;2.42;;;;;;;-145.69;100.00;70141.03;5076164;28;20210;-75
2022/09/14 04:41:15;;;;;;;7.22;2.50;;;;;;;-145.69;100.00;70133.06;5076292;28;20226;-75
2022/09/14 04:43:42;;;;;;;5.43;2.50;;;;;;;-145.69;100.00;70152.97;5075903;28;20239;-78
2022/09/14 04:46:13;;;;;;;6.40;2.88;;;;;;;-145.69;100.00;70174.84;5075520;28;20195;-76
2022/09/14 04:48:40;;;;;;;7.05;2.88;;;;;;;-145.69;100.00;70186.78;5075686;28;20213;-77
2022/09/14 04:51:10;;;;;;;10.32;2.80;;;;;;;-145.69;100.00;70192.75;5075269;28;20238;-77
2022/09/14 04:53:38;;;;;;;7.18;3.65;;;;;;;-145.69;100.00;70192.75;5075769;28;20195;-76
2022/09/14 04:56:06;;;;;;;5.60;3.05;;;;;;;-145.69;100.00;70204.69;5075731;28;20209;-76
2022/09/14 04:58:34;;;;;;;4.57;2.90;;;;;;;-145.69;100.00;70200.69;5075494;28;20187;-77
2022/09/14 05:01:02;;;;;;;4.45;1.92;;;;;;;-145.69;100.00;70194.72;5075607;28;20281;-77
2022/09/14 05:03:30;;;;;;;6.40;2.60;;;;;;;-145.69;100.00;70192.75;5075696;28;20233;-76
2022/09/14 05:06:00;;;;;;;3.95;2.40;;;;;;;-145.69;100.00;70204.69;5059001;28;20204;-74
2022/09/14 05:08:27;;;;;;;5.68;2.90;;;;;;;-145.69;100.00;70208.66;5055638;28;20210;-76
2022/09/14 05:10:55;;;;;;;8.70;2.60;;;;;;;-145.69;100.00;70208.66;5055500;28;20406;-77
2022/09/14 05:13:22;;;;;;;4.45;2.78;;;;;;;-145.69;100.00;70204.69;5055360;28;20634;-77
2022/09/14 05:15:48;;;;;;;6.45;2.70;;;;;;;-145.69;100.00;70210.66;5055262;28;20298;-76
2022/09/14 05:18:15;;;;;;;5.72;2.58;;;;;;;-145.69;100.00;70200.69;5055197;28;20665;-76
2022/09/14 05:20:43;;;;;;;5.25;2.50;;;;;;;-145.69;100.00;70200.69;5054762;28;20570;-76
2022/09/14 05:23:09;;;;;;;4.88;2.42;;;;;;;-145.69;100.00;70208.66;5055278;28;20253;-76
2022/09/14 05:25:36;;;;;;;5.50;3.03;;;;;;;-145.69;100.00;70192.75;5055030;28;20206;-76
2022/09/14 05:28:03;;;;;;;5.20;2.97;;;;;;;-145.69;100.00;70180.81;5056669;28;20206;-77
2022/09/14 05:30:30;;;;;;;7.78;2.90;;;;;;;-145.69;100.00;70168.88;5075128;28;20199;-76
2022/09/14 05:32:56;;;;;;;3.05;2.35;;;;;;;-145.69;100.00;70170.84;5074731;28;20203;-76
2022/09/14 05:35:23;;;;;;;4.18;2.42;;;;;;;-145.69;100.00;70170.84;5075148;28;20289;-76
2022/09/14 05:37:51;;;;;;;3.40;2.60;;;;;;;-145.69;100.00;70164.88;5075208;28;20205;-76
2022/09/14 05:40:17;;;;;;;7.05;3.03;;;;;;;-145.69;100.00;70152.97;5074990;28;20195;-76
2022/09/14 05:42:44;;;;;;;4.70;2.88;;;;;;;-145.69;100.00;70148.97;5074641;28;20223;-76
2022/09/14 05:45:10;;;;;;;5.68;3.15;;;;;;;-145.69;100.00;70141.03;5075058;28;20557;-78
2022/09/14 05:47:37;;;;;;;4.20;2.50;;;;;;;-145.69;100.00;70129.09;5074619;28;20203;-75
2022/09/14 05:50:04;;;;;;;8.88;3.17;;;;;;;-145.69;100.00;70119.13;5074652;28;20199;-75
2022/09/14 05:52:31;;;;;;;7.38;2.80;;;;;;;-145.69;100.00;70121.13;5074833;28;20199;-76
2022/09/14 05:54:58;;;;;;;4.20;2.80;;;;;;;-145.69;100.00;70121.13;5074381;28;20206;-77
2022/09/14 05:57:25;;;;;;;9.00;2.53;;;;;;;-145.69;100.00;70121.13;5074396;28;20199;-76
2022/09/14 05:59:51;;;;;;;6.97;2.35;;;;;;;-145.69;100.00;70117.16;5074007;28;20194;-76
2022/09/14 06:02:18;;;;;;;4.30;2.25;;;;;;;-145.69;100.00;70115.16;5074136;28;20298;-76
2022/09/14 06:04:44;;;;;;;6.88;2.30;;;;;;;-145.69;100.00;70109.19;5074377;28;20555;-76
2022/09/14 06:07:11;;;;;;;6.57;2.80;;;;;;;-145.69;100.00;70113.16;5074486;28;20206;-75
2022/09/14 06:09:37;;;;;;;6.65;2.38;;;;;;;-145.69;100.00;70105.22;5074303;28;20198;-77
2022/09/14 06:12:06;;;;;;;7.32;2.50;;;;;;;-145.69;100.00;70097.25;5071867;28;20281;-76
2022/09/14 06:14:33;;;;;;;6.95;2.33;;;;;;;-145.69;100.00;70095.28;5069620;28;20217;-76
2022/09/14 06:17:00;;;;;;;3.88;2.25;;;;;;;-145.69;100.00;70097.25;5074211;28;20198;-76
2022/09/14 06:19:26;;;;;;;3.03;2.20;;;;;;;-145.69;100.00;70081.34;5073905;28;20928;-75
2022/09/14 06:21:53;;;;;;;3.65;2.10;;;;;;;-145.69;100.00;70081.34;5074169;28;20195;-76
2022/09/14 06:24:19;;;;;;;9.65;2.30;;;;;;;-145.69;100.00;70073.38;5073990;28;20249;-76
2022/09/14 06:26:46;;;;;;;7.50;2.38;;;;;;;-145.69;100.00;70057.47;5073840;28;20210;-76
2022/09/14 06:29:13;;;;;;;5.38;2.05;;;;;;;-145.69;100.00;70057.47;5073790;28;20198;-76
2022/09/14 06:31:40;;;;;;;5.95;2.17;;;;;;;-145.69;100.00;70049.50;5074124;28;20587;-76
2022/09/14 06:34:06;;;;;;;7.00;1.98;;;;;;;-145.69;100.00;70035.59;5073131;28;20226;-76
2022/09/14 06:36:33;;;;;;;4.68;2.10;;;;;;;-145.69;100.00;70023.66;5073868;28;20206;-76
2022/09/14 06:38:59;;;;;;;6.32;2.05;;;;;;;-145.69;100.00;70001.78;5073939;28;20203;-75
2022/09/14 06:41:29;;;;;;;4.15;1.67;;;;;;;-145.69;100.00;69987.84;5073966;28;20237;-76
2022/09/14 06:43:57;;;;;;;4.68;1.88;;;;;;;-145.69;100.00;69989.84;5073457;28;20227;-76
2022/09/14 06:46:27;;;;;;;3.92;1.90;;;;;;;-145.69;100.00;69983.88;5073484;28;20294;-76
2022/09/14 06:48:56;;;;;;;8.23;2.05;;;;;;;-145.69;100.00;69985.88;5073471;28;20657;-75
2022/09/14 06:51:25;;;;;;;4.88;1.98;;;;;;;-145.69;100.00;69983.88;5073460;28;20234;-77
2022/09/14 06:53:53;;;;;;;7.63;2.03;;;;;;;-145.69;100.00;69975.91;5073619;28;20230;-77
2022/09/14 06:56:20;;;;;;;3.85;2.10;;;;;;;-145.69;100.00;69944.09;5073285;28;20444;-76
2022/09/14 06:58:46;;;;;;;5.88;2.35;;;;;;;-145.69;100.00;69942.09;5073435;28;20194;-76
2022/09/14 07:01:15;;;;;;;8.63;1.90;;;;;;;-145.69;100.00;69948.06;5058816;28;20206;-76
2022/09/14 07:03:43;;;;;;;7.22;2.10;;;;;;;-145.69;100.00;69952.03;5053104;28;20203;-77
2022/09/14 07:06:13;;;;;;;6.28;1.70;;;;;;;-145.69;100.00;69954.03;5052894;28;20604;-75
2022/09/14 07:08:40;;;;;;;6.10;1.90;;;;;;;-145.69;100.00;69934.16;5053415;28;20203;-76
2022/09/14 07:11:08;;;;;;;9.38;2.17;;;;;;;-145.69;100.00;69934.16;5052884;28;20207;-77
2022/09/14 07:13:34;;;;;;;3.20;1.70;;;;;;;-145.69;100.00;69934.16;5053335;28;20231;-76
2022/09/14 07:16:02;;;;;;;5.53;1.88;;;;;;;-145.69;100.00;69944.09;5053240;28;20208;-78
2022/09/14 07:18:30;;;;;;;8.15;2.40;;;;;;;-145.69;100.00;69932.16;5053085;28;20199;-76
2022/09/14 07:21:01;;;;;;;5.40;1.95;;;;;;;-145.69;100.00;69932.16;5052849;28;20657;-78
2022/09/14 07:23:27;;;;;;;5.13;2.03;;;;;;;-145.69;100.00;69942.09;5053207;28;20222;-76
2022/09/14 07:26:00;;;;;;;2.63;1.70;;;;;;;-145.69;100.00;69926.19;5053088;28;20286;-76
2022/09/14 07:28:27;;;;;;;4.53;1.85;;;;;;;-145.69;100.00;69930.16;5061885;28;20203;-76
2022/09/14 07:30:53;;;;;;;4.72;1.77;;;;;;;-145.69;100.00;69912.25;5073091;28;20207;-76
2022/09/14 07:33:20;;;;;;;5.65;2.17;;;;;;;-145.69;100.00;69914.25;5072721;28;20226;-75
2022/09/14 07:35:46;;;;;;;6.25;1.98;;;;;;;-145.69;100.00;69914.25;5073079;28;20209;-75
2022/09/14 07:38:14;;;;;;;4.18;2.10;;;;;;;-145.69;100.00;69902.31;5072964;28;20203;-77
2022/09/14 07:40:40;;;;;;;5.00;1.50;;;;;;;-145.69;100.00;69906.28;5072940;28;20199;-76
2022/09/14 07:43:07;;;;;;;7.18;2.15;;;;;;;-145.69;100.00;69910.28;5072680;28;20207;-75
2022/09/14 07:45:35;;;;;;;4.30;1.88;;;;;;;-145.69;100.00;69902.31;5072652;28;20202;-76
2022/09/14 07:48:02;;;;;;;4.68;2.20;;;;;;;-145.69;100.00;69892.38;5072959;28;20198;-76
2022/09/14 07:50:28;;;;;;;5.75;2.30;;;;;;;-145.69;100.00;69878.44;5072544;28;20592;-75
2022/09/14 07:52:55;;;;;;;5.47;1.77;;;;;;;-145.69;100.00;69874.47;5072758;28;20648;-76
2022/09/14 07:55:23;;;;;;;6.00;2.00;;;;;;;-145.69;100.00;69862.53;5072669;28;20231;-77
2022/09/14 07:57:49;;;;;;;7.80;2.00;;;;;;;-145.69;100.00;69850.59;5072328;28;20592;-76
2022/09/14 08:00:16;;;;;;;6.03;1.77;;;;;;;-145.69;100.00;69854.59;5072734;28;20198;-75
2022/09/14 08:02:42;;;;;;;4.00;1.75;;;;;;;-145.69;100.00;69852.59;5072346;28;20840;-77
2022/09/14 08:05:10;;;;;;;3.78;1.90;;;;;;;-145.69;100.00;69844.63;5072528;28;20228;-76
2022/09/14 08:07:36;;;;;;;3.40;1.90;;;;;;;-145.69;100.00;69866.50;5072496;28;20224;-77
2022/09/14 08:10:03;;;;;;;3.97;2.15;;;;;;;-145.69;100.00;69868.50;5072709;28;20203;-76
2022/09/14 08:12:31;;;;;;;8.00;2.78;;;;;;;-145.69;100.00;69866.50;5072428;28;20660;-76
2022/09/14 08:14:57;;;;;;;5.65;2.25;;;;;;;-145.69;100.00;69862.53;5072419;28;20700;-76
2022/09/14 08:17:23;;;;;;;4.60;1.50;;;;;;;-145.69;100.00;69838.66;5072355;28;20210;-75
2022/09/14 08:19:51;;;;;;;4.63;1.90;;;;;;;-145.69;100.00;69794.91;5072687;28;20198;-76
2022/09/14 08:22:17;;;;;;;6.88;1.95;;;;;;;-145.69;100.00;69775.00;5072276;28;20213;-76
2022/09/14 08:24:43;;;;;;;4.05;2.15;;;;;;;-145.69;100.00;69745.19;5072537;28;20199;-76
2022/09/14 08:27:10;;;;;;;6.63;2.13;;;;;;;-145.69;100.00;69751.16;5072208;28;20206;-75
2022/09/14 08:29:39;;;;;;;4.95;1.80;;;;;;;-145.69;100.00;69757.13;5072384;28;20234;-75
2022/09/14 08:32:06;;;;;;;4.90;2.05;;;;;;;-145.69;100.00;69784.97;5072331;28;20230;-76
2022/09/14 08:34:33;;;;;;;6.10;1.90;;;;;;;-145.69;100.00;69814.78;5072178;28;20229;-76
2022/09/14 08:36:59;;;;;;;4.53;1.67;;;;;;;-145.69;100.00;69826.72;5072522;28;20260;-77
2022/09/14 08:39:26;;;;;;;3.42;1.92;;;;;;;-145.69;100.00;69830.72;5072120;28;20202;-78
2022/09/14 08:41:54;;;;;;;6.60;1.92;;;;;;;-145.69;100.00;69838.66;5063551;28;20211;-82
2022/09/14 08:44:25;;;;;;;6.85;1.85;;;;;;;-145.69;100.00;69826.72;5072192;28;20206;-80
2022/09/14 08:46:58;;;;;;;9.00;2.42;;;;;;;-145.69;100.00;69838.66;5072181;28;20228;-80
2022/09/14 08:49:36;;;;;;;3.35;1.80;;;;;;;-145.69;100.00;69812.81;5070925;28;20480;-78
2022/09/14 08:52:03;;;;;;;3.33;2.00;;;;;;;-145.69;100.00;69782.97;5071994;28;20223;-77
2022/09/14 08:54:31;;;;;;;4.32;2.20;;;;;;;-145.69;100.00;69794.91;5071930;28;20250;-75
2022/09/14 08:57:07;;;;;;;5.40;1.70;;;;;;;-145.69;100.00;69786.94;5074170;28;20203;-80
2022/09/14 08:59:41;;;;;;;4.50;1.80;;;;;;;-145.69;100.00;69763.09;5074566;28;20201;-80
2022/09/14 09:02:26;;;;;;;4.00;1.98;;;;;;;-145.69;100.00;69753.13;5057990;28;20218;-78
2022/09/14 09:04:55;;;;;;;6.22;2.03;;;;;;;-145.69;100.00;69731.25;5055498;28;20210;-77
2022/09/14 09:07:31;;;;;;;6.57;2.10;;;;;;;-145.69;99.25;69761.09;5055532;28;20203;-78
2022/09/14 09:09:59;;;;;;;9.50;1.65;;;;;;;-145.69;99.50;69743.19;5055529;28;20688;-77
2022/09/14 09:12:36;;;;;;;9.13;2.05;;;;;;;-145.69;98.46;69723.31;5055359;28;20203;-77
2022/09/14 09:15:09;;;;;;;4.28;1.73;;;;;;;-145.69;100.00;69695.47;5055497;28;20697;-79
2022/09/14 09:17:40;;;;;;;3.65;1.60;;;;;;;-145.69;97.01;69671.59;5062202;28;20195;-79
2022/09/14 09:20:15;;;;;;;3.10;1.30;;;;;;;-145.69;100.00;69653.69;5075437;28;20202;-78
2022/09/14 09:22:46;;;;;;;5.35;1.92;;;;;;;-145.69;99.26;69639.75;5075380;28;20198;-78
2022/09/14 09:25:17;;;;;;;9.63;1.73;;;;;;;-145.69;96.43;69627.84;5074977;28;20677;-79
2022/09/14 09:27:44;;;;;;;5.43;1.40;;;;;;;-145.69;92.64;69603.97;5074964;28;20198;-79
2022/09/14 09:30:13;;;;;;;5.78;1.40;;;;;;;-145.69;97.15;69603.97;5074955;28;20726;-79
2022/09/14 09:32:45;;;;;;;4.63;1.70;;;;;;;-145.69;95.20;69619.88;5074768;28;20214;-80
2022/09/14 09:35:17;;;;;;;2.60;1.45;;;;;;;-145.69;95.47;69603.97;5074834;28;20589;-81
2022/09/14 09:37:43;;;;;;;3.97;1.65;;;;;;;-145.69;93.94;69619.88;5074924;28;20207;-80
2022/09/14 09:40:18;;;;;;;5.40;1.88;;;;;;;-145.69;94.62;69623.84;5074351;28;20198;-80
2022/09/14 09:43:08;;;;;;;4.85;1.63;;;;;;;-145.69;91.55;69613.91;5074322;28;20198;-79
2022/09/14 09:45:48;;;;;;;7.13;2.05;;;;;;;-145.69;93.33;69601.97;5054725;28;20681;-78
2022/09/14 09:48:17;;;;;;;5.35;1.58;;;;;;;-145.69;92.73;69592.03;5073260;28;20196;-80
2022/09/14 09:50:49;;;;;;;8.93;1.90;;;;;;;-145.69;92.51;69586.06;5074395;28;20895;-78
2022/09/14 09:53:17;;;;;;;7.68;1.70;;;;;;;-145.69;91.12;69570.16;5074204;28;20206;-79
2022/09/14 09:55:47;;;;;;;5.50;1.98;;;;;;;-145.69;92.80;69548.28;5074619;28;20248;-79
2022/09/14 09:58:22;;;;;;;8.40;1.83;;;;;;;-145.69;91.49;69530.38;5074477;28;20209;-79
2022/09/14 10:00:56;;;;;;;6.47;1.60;;;;;;;-145.69;90.18;69512.47;5074550;28;20933;-80
2022/09/14 10:03:29;;;;;;;11.17;2.00;;;;;;;-145.69;91.15;69494.56;5073664;28;20474;-80
2022/09/14 10:06:02;;;;;;;6.55;2.00;;;;;;;-145.69;88.76;69492.59;5074395;28;20202;-79
2022/09/14 10:08:33;;;;;;;5.30;1.90;;;;;;;-145.69;88.94;69492.59;5073251;28;20230;-75
2022/09/14 10:11:00;;;;;;;3.00;1.30;;;;;;;-145.69;85.46;69502.53;5074416;28;20195;-77
2022/09/14 10:13:29;;;;;;;4.53;1.70;;;;;;;-145.69;87.56;69512.47;5074130;28;20202;-76
2022/09/14 10:16:05;;;;;;;8.63;1.88;;;;;;;-145.69;88.78;69480.66;5073926;28;20230;-76
2022/09/14 10:18:34;;;;;;;6.38;2.25;;;;;;;-145.69;86.63;69480.66;5074260;28;20238;-78
2022/09/14 10:21:06;;;;;;;4.70;1.60;;;;;;;-145.69;85.71;69452.81;5075344;28;20205;-76
2022/09/14 10:23:36;;;;;;;6.88;1.67;;;;;;;-145.69;85.11;69464.75;5073867;28;20199;-80
2022/09/14 10:26:24;;;;;;;4.20;1.88;;;;;;;-145.69;82.58;69462.75;5073827;28;20207;-78
2022/09/14 10:28:51;;;;;;;6.45;1.58;;;;;;;-145.69;84.14;69506.50;5074081;28;20260;-80
2022/09/14 10:31:25;;;;;;;4.80;1.63;;;;;;;-145.69;87.97;69480.66;5073827;28;20203;-78
2022/09/14 10:33:55;;;;;;;6.15;1.70;;;;;;;-145.69;84.38;69484.63;5073951;28;20199;-77
2022/09/14 10:36:26;;;;;;;7.18;1.75;;;;;;;-145.69;85.75;69492.59;5073382;28;20206;-79
2022/09/14 10:38:57;;;;;;;7.72;1.90;;;;;;;-145.69;89.31;69488.59;5073964;28;20229;-80
2022/09/14 10:41:26;;;;;;;8.32;1.88;;;;;;;-145.69;90.38;69522.41;5073727;28;20249;-81
2022/09/14 10:44:18;;;;;;;9.13;2.03;;;;;;;-145.69;89.79;69492.59;5073644;28;20210;-79
2022/09/14 10:46:53;;;;;;;6.95;1.77;;;;;;;-145.69;92.92;69524.41;5073589;28;20205;-82
2022/09/14 10:49:36;;;;;;;4.88;1.60;;;;;;;-145.69;96.53;69580.09;5073525;28;20652;-80
2022/09/14 10:52:14;;;;;;;5.70;3.42;;;;;;;-145.69;100.00;69635.78;5073076;28;20413;-80
2022/09/14 10:55:05;;;;;;;11.02;4.38;;;;;;;-145.69;100.00;69695.47;5072059;28;20231;-79
2022/09/14 10:57:47;;;;;;;7.68;2.28;;;;;;;-145.69;100.00;69798.88;5062651;28;20199;-80
2022/09/14 11:00:18;;;;;;;4.10;1.98;;;;;;;-145.69;100.00;69878.44;5053430;28;20290;-78
2022/09/14 11:02:59;;;;;;;8.73;2.78;;;;;;;-145.69;100.00;69956.03;5053151;28;20235;-81
2022/09/14 11:05:30;;;;;;;5.53;1.92;;;;;;;-145.69;100.00;70025.66;5052949;28;20650;-79
2022/09/14 11:08:11;;;;;;;9.18;3.30;;;;;;;-145.69;100.00;70053.50;5055778;28;20206;-80
2022/09/14 11:10:49;;;;;;;8.38;2.35;;;;;;;-145.69;100.00;70043.56;5053222;28;20207;-78
2022/09/14 11:13:42;;;;;;;6.80;2.20;;;;;;;-145.69;100.00;70033.59;5053257;28;20282;-77
2022/09/14 11:16:23;;;;;;;5.40;2.03;;;;;;;-145.69;100.00;70023.66;5052968;28;20223;-80
2022/09/14 11:19:05;;;;;;;3.75;1.90;;;;;;;-145.69;100.00;70025.66;5052731;28;20231;-77
2022/09/14 11:21:43;;;;;;;6.05;1.50;;;;;;;-145.69;100.00;70039.56;5053087;28;20286;-78